Phnom-Penh, Cambodja

5:36 PM ICT op 29 maart 2015 (GMT +0700)
Pochentong International | | Change Station
CLOSE
Current Station
Luchthaven
Location: Phnom Penh,
Geometrische hoogte: 33 ft
Nabije weerstations

Hoogte 33 ft 11.55 °N, 104.84 °E | Updated 6 minutes ago

Partly Cloudy
Gedeeltelijk bewolkt
95 °F
Voelt als 100 °F
N
5
Wind Variabel Wind van ZO

Vandaag
Hoog -- | Laag -- °F
--% Kans op neerslag
Gisteren
Hoog -- | Laag -- °F
Precip. -- inches
5:59 AM 6:11 PM
Wassende maan, 70% visible
Druk 29.71 inches
Zicht 6.2 mijlen
Wolken Gering 1700 ft
Warmteindex 100 °F
Dauwpunt 68 °F
Vochtigheid 41%
Neerslag 0.00 inches
Dikte sneeuw Niet beschikbaar.
UV 1 van de 12
Pollen Niet beschikbaar.
Luchtkwaliteit Niet beschikbaar.
Flu Activity Niet beschikbaar.
METAR VDPP 291030Z 13004KT 100V170 9999 FEW017 35/20 Q1006

More Conditions Fewer Conditions

Druk 29.71 inches
Zicht 6.2 mijlen
Wolken Gering 1700 ft
Warmteindex 100 °F
Dauwpunt 68 °F
Vochtigheid 41%
Neerslag 0.00 inches
Dikte sneeuw Niet beschikbaar.
UV 1 van de 12
Pollen Niet beschikbaar.
Luchtkwaliteit Niet beschikbaar.
Flu Activity Niet beschikbaar.
METAR VDPP 291030Z 13004KT 100V170 9999 FEW017 35/20 Q1006

More Conditions Fewer Conditions

10-Day Weather Forecast

Almanac

Astronomie

Mar. 29, 2015 Opkomst Ondergang
Werkelijke tijd
Burgerlijke schemering
Nautische schemering
Astronomische schemering
Maan
Golflengte van het zichtbare licht
Daglengte
Tomorrow will be .
, % of the Moon is Illuminated

Extremen vandaag

Country Highs Country Lows

Community

WunderPhotos

Upload Photos

1,809,213 foto’s ge-upload!

WunderBlogs® & News

Nearby

Luchtkwaliteit

  Luchtkwaliteit LK-index Verontreinigende stof
Not available.

Dikte sneeuw

Station Depth Geometrische hoogte

Aardbevingen

Stad Distance Mag. Time & Date
Minimum magnitude displayed is 2.5.

Watertemperatuur langs de kust

Plaats Temperatuur

Stations

Nabije weerstations

Locatie station Temp. Gevoelstemperatuur Dauwpunt Vochtigheid Wind Precip. Hoogte Geactualiseerd Type